Time,TemperatureF,DewpointF,PressureIn,WindDirection,WindDirectionDegrees,WindSpeedMPH,WindSpeedGustMPH,Humidity,HourlyPrecipIn,Conditions,Clouds,dailyrainin,SoftwareType,DateUTC
2013-10-04 00:01:00,59.7,57.0,29.87,ENE,67,4.0,14.9,91,0.00,,,0.00,WUHU21636XXSP,2013-10-04 05:01:00,
2013-10-04 00:11:00,59.7,57.0,29.86,ENE,67,4.6,14.5,91,0.00,,,0.00,WUHU21636XXSP,2013-10-04 05:11:00,
2013-10-04 00:31:00,59.9,57.2,29.85,ENE,67,3.8,15.4,91,0.00,,,0.00,WUHU21636XXSP,2013-10-04 05:31:00,
2013-10-04 00:41:00,60.1,57.4,29.85,ENE,67,7.1,19.0,91,0.00,,,0.00,WUHU21636XXSP,2013-10-04 05:41:00,
2013-10-04 00:51:00,60.1,57.4,29.84,ENE,67,6.9,17.0,91,0.00,,,0.00,WUHU21636XXSP,2013-10-04 05:51:00,
2013-10-04 01:01:00,60.3,57.4,29.84,NE,45,4.4,16.7,90,0.00,,,0.00,WUHU21636XXSP,2013-10-04 06:01:00,
2013-10-04 01:11:00,60.4,57.6,29.83,ENE,67,6.7,14.9,90,0.00,,,0.00,WUHU21636XXSP,2013-10-04 06:11:00,
2013-10-04 01:21:00,60.4,57.6,29.83,ENE,67,2.2,13.1,90,0.00,,,0.00,WUHU21636XXSP,2013-10-04 06:21:00,
2013-10-04 01:31:00,60.4,57.6,29.83,ENE,67,3.5,6.7,90,0.00,,,0.00,WUHU21636XXSP,2013-10-04 06:31:00,
2013-10-04 01:41:00,60.6,57.7,29.83,NE,45,4.2,14.0,90,0.00,,,0.00,WUHU21636XXSP,2013-10-04 06:41:00,
2013-10-04 01:51:00,60.6,57.7,29.82,ENE,67,4.2,9.3,90,0.00,,,0.00,WUHU21636XXSP,2013-10-04 06:51:00,
2013-10-04 02:01:00,60.6,57.7,29.82,ENE,67,9.6,16.3,90,0.00,,,0.00,WUHU21636XXSP,2013-10-04 07:01:00,
2013-10-04 02:11:00,60.6,57.7,29.82,ENE,67,6.2,13.4,90,0.00,,,0.00,WUHU21636XXSP,2013-10-04 07:11:00,
2013-10-04 02:21:00,60.6,57.7,29.83,ENE,67,1.5,11.4,90,0.00,,,0.00,WUHU21636XXSP,2013-10-04 07:21:00,
2013-10-04 02:31:00,60.6,57.4,29.82,ENE,67,4.2,8.7,89,0.00,,,0.00,WUHU21636XXSP,2013-10-04 07:31:00,
2013-10-04 02:41:00,60.6,57.4,29.82,ENE,67,7.1,14.3,89,0.00,,,0.00,WUHU21636XXSP,2013-10-04 07:41:00,
2013-10-04 02:51:00,60.6,57.4,29.83,ESE,112,0.0,15.4,89,0.00,,,0.00,WUHU21636XXSP,2013-10-04 07:51:00,
2013-10-04 03:01:00,60.8,57.6,29.83,ENE,67,4.4,8.2,89,0.00,,,0.00,WUHU21636XXSP,2013-10-04 08:01:00,
2013-10-04 03:11:00,60.8,57.6,29.83,NE,45,4.4,7.6,89,0.00,,,0.00,WUHU21636XXSP,2013-10-04 08:11:00,
2013-10-04 03:21:00,60.6,57.0,29.83,ENE,67,3.5,11.1,88,0.00,,,0.00,WUHU21636XXSP,2013-10-04 08:21:00,
2013-10-04 03:31:00,60.6,57.0,29.83,NE,45,4.9,5.1,88,0.00,,,0.00,WUHU21636XXSP,2013-10-04 08:31:00,
2013-10-04 03:41:00,60.6,57.0,29.83,ENE,67,4.0,6.9,88,0.00,,,0.00,WUHU21636XXSP,2013-10-04 08:41:00,
2013-10-04 03:51:00,60.6,57.0,29.83,ENE,67,0.0,4.2,88,0.00,,,0.00,WUHU21636XXSP,2013-10-04 08:51:00,
2013-10-04 04:01:00,60.6,57.0,29.83,NE,45,5.5,6.4,88,0.00,,,0.00,WUHU21636XXSP,2013-10-04 09:01:00,
2013-10-04 04:11:00,60.6,57.0,29.82,ENE,67,4.6,9.1,88,0.00,,,0.00,WUHU21636XXSP,2013-10-04 09:11:00,
2013-10-04 04:21:00,60.4,57.2,29.82,ENE,67,4.9,7.8,89,0.00,,,0.00,WUHU21636XXSP,2013-10-04 09:21:00,
2013-10-04 04:31:00,60.4,57.2,29.81,NE,45,0.6,8.2,89,0.00,,,0.00,WUHU21636XXSP,2013-10-04 09:31:00,
2013-10-04 04:41:00,60.4,57.2,29.82,NE,45,2.2,6.4,89,0.00,,,0.00,WUHU21636XXSP,2013-10-04 09:41:00,
2013-10-04 04:51:00,60.4,57.2,29.81,NNE,22,3.1,3.1,89,0.00,,,0.00,WUHU21636XXSP,2013-10-04 09:51:00,
2013-10-04 05:01:00,60.4,57.2,29.81,NE,45,0.6,7.6,89,0.00,,,0.00,WUHU21636XXSP,2013-10-04 10:01:00,
2013-10-04 05:11:00,60.6,57.4,29.80,NNE,22,2.9,6.7,89,0.00,,,0.00,WUHU21636XXSP,2013-10-04 10:11:00,
2013-10-04 05:21:00,60.6,57.4,29.81,NE,45,4.2,4.2,89,0.00,,,0.00,WUHU21636XXSP,2013-10-04 10:21:00,
2013-10-04 05:31:00,60.6,57.4,29.81,NNE,22,0.0,4.2,89,0.00,,,0.00,WUHU21636XXSP,2013-10-04 10:31:00,
2013-10-04 05:41:00,60.6,57.4,29.82,North,0,4.9,9.3,89,0.00,,,0.00,WUHU21636XXSP,2013-10-04 10:41:00,
2013-10-04 05:51:00,60.4,57.2,29.82,North,0,0.0,3.1,89,0.00,,,0.00,WUHU21636XXSP,2013-10-04 10:51:00,
2013-10-04 06:01:00,60.4,57.2,29.82,NNE,22,2.2,6.7,89,0.00,,,0.00,WUHU21636XXSP,2013-10-04 11:01:00,
2013-10-04 06:11:00,60.4,57.2,29.81,NE,45,0.0,2.2,89,0.00,,,0.00,WUHU21636XXSP,2013-10-04 11:11:00,
2013-10-04 06:22:00,60.3,56.7,29.81,NNE,22,0.4,4.0,88,0.00,,,0.00,WUHU21636XXSP,2013-10-04 11:22:00,
2013-10-04 06:32:00,60.1,56.5,29.82,NNE,22,2.9,2.9,88,0.00,,,0.00,WUHU21636XXSP,2013-10-04 11:32:00,
2013-10-04 06:42:00,60.1,56.5,29.82,NNE,22,0.0,3.1,89,0.00,,,0.00,WUHU21636XXSP,2013-10-04 11:42:00,
2013-10-04 06:52:00,60.1,56.8,29.82,NE,45,4.2,4.2,89,0.00,,,0.00,WUHU21636XXSP,2013-10-04 11:52:00,
2013-10-04 07:02:00,60.1,56.8,29.82,NE,45,0.0,4.2,89,0.00,,,0.00,WUHU21636XXSP,2013-10-04 12:02:00,
2013-10-04 07:12:00,60.1,56.8,29.83,NNE,22,2.4,6.4,89,0.00,,,0.00,WUHU21636XXSP,2013-10-04 12:12:00,
2013-10-04 07:22:00,60.1,56.8,29.83,North,0,2.0,2.4,89,0.00,,,0.00,WUHU21636XXSP,2013-10-04 12:22:00,
2013-10-04 07:32:00,60.1,56.8,29.83,North,0,0.0,4.2,89,0.00,,,0.00,WUHU21636XXSP,2013-10-04 12:32:00,
2013-10-04 07:42:00,60.3,57.0,29.83,North,0,3.3,3.5,89,0.00,,,0.00,WUHU21636XXSP,2013-10-04 12:42:00,
2013-10-04 07:52:00,60.1,56.8,29.81,NNE,22,4.4,4.4,89,0.00,,,0.00,WUHU21636XXSP,2013-10-04 12:52:00,
2013-10-04 08:02:00,59.9,57.0,29.80,NNE,22,2.2,9.6,90,0.00,,,0.00,WUHU21636XXSP,2013-10-04 13:02:00,
2013-10-04 08:12:00,59.5,56.7,29.80,North,0,0.0,9.1,90,0.00,,,0.00,WUHU21636XXSP,2013-10-04 13:12:00,
2013-10-04 08:22:00,59.5,56.7,29.83,NNE,22,5.5,6.2,90,0.00,,,0.00,WUHU21636XXSP,2013-10-04 13:22:00,
2013-10-04 08:32:00,59.5,56.7,29.83,North,0,2.2,9.3,90,0.00,,,0.00,WUHU21636XXSP,2013-10-04 13:32:00,
2013-10-04 08:42:00,59.5,56.7,29.83,North,0,0.6,7.6,90,0.00,,,0.00,WUHU21636XXSP,2013-10-04 13:42:00,
2013-10-04 08:52:00,59.5,56.7,29.82,North,0,3.3,10.0,90,0.00,,,0.00,WUHU21636XXSP,2013-10-04 13:52:00,
2013-10-04 09:02:00,59.5,56.7,29.82,North,0,5.3,10.9,90,0.00,,,0.00,WUHU21636XXSP,2013-10-04 14:02:00,
2013-10-04 09:12:00,59.5,56.7,29.83,NNE,22,1.5,6.7,90,0.00,,,0.00,WUHU21636XXSP,2013-10-04 14:12:00,
2013-10-04 09:22:00,59.4,56.5,29.83,North,0,0.0,5.3,90,0.00,,,0.00,WUHU21636XXSP,2013-10-04 14:22:00,
2013-10-04 09:32:00,59.7,56.8,29.83,North,0,4.0,7.6,90,0.00,,,0.00,WUHU21636XXSP,2013-10-04 14:32:00,
2013-10-04 09:42:00,59.7,56.8,29.84,NW,315,2.6,4.0,90,0.00,,,0.00,WUHU21636XXSP,2013-10-04 14:42:00,
2013-10-04 09:52:00,59.4,56.5,29.85,West,270,1.5,4.4,90,0.00,,,0.00,WUHU21636XXSP,2013-10-04 14:52:00,
2013-10-04 10:02:00,59.0,56.1,29.85,West,270,4.4,4.4,90,0.00,,,0.00,WUHU21636XXSP,2013-10-04 15:02:00,
2013-10-04 10:12:00,59.0,56.1,29.85,West,270,0.4,4.6,90,0.00,,,0.00,WUHU21636XXSP,2013-10-04 15:12:00,
2013-10-04 10:22:00,59.0,56.1,29.85,WNW,292,2.6,4.2,90,0.00,,,0.00,WUHU21636XXSP,2013-10-04 15:22:00,
2013-10-04 10:32:00,58.6,55.8,29.86,West,270,5.3,12.7,90,0.00,,,0.00,WUHU21636XXSP,2013-10-04 15:32:00,
2013-10-04 10:42:00,58.6,55.8,29.87,NW,315,3.8,11.6,90,0.00,,,0.00,WUHU21636XXSP,2013-10-04 15:42:00,
2013-10-04 10:52:00,58.1,55.2,29.88,West,270,4.6,13.8,90,0.00,,,0.00,WUHU21636XXSP,2013-10-04 15:52:00,
2013-10-04 11:02:00,57.4,54.7,29.87,West,270,6.0,12.5,91,0.00,,,0.00,WUHU21636XXSP,2013-10-04 16:02:00,
2013-10-04 11:12:00,57.4,55.0,29.87,West,270,5.3,14.7,92,0.00,,,0.00,WUHU21636XXSP,2013-10-04 16:12:00,
2013-10-04 11:22:00,57.0,54.3,29.88,West,270,5.1,17.8,91,0.00,,,0.00,WUHU21636XXSP,2013-10-04 16:22:00,
2013-10-04 11:32:00,57.4,54.5,29.88,WNW,292,5.3,16.7,90,0.00,,,0.00,WUHU21636XXSP,2013-10-04 16:32:00,
2013-10-04 11:42:00,56.8,53.2,29.89,WNW,292,9.6,22.5,88,0.00,,,0.00,WUHU21636XXSP,2013-10-04 16:42:00,
2013-10-04 11:52:00,55.2,51.6,29.90,West,270,9.8,26.3,88,0.00,,,0.00,WUHU21636XXSP,2013-10-04 16:52:00,
2013-10-04 12:02:00,55.0,51.1,29.90,West,270,8.9,25.2,87,0.00,,,0.00,WUHU21636XXSP,2013-10-04 17:02:00,
2013-10-04 12:12:00,56.1,51.3,29.90,WSW,247,7.8,33.3,84,0.00,,,0.00,WUHU21636XXSP,2013-10-04 17:12:00,
2013-10-04 12:22:00,55.9,49.5,29.91,WNW,292,15.6,24.3,79,0.00,,,0.00,WUHU21636XXSP,2013-10-04 17:22:00,
2013-10-04 12:32:00,55.2,48.0,29.92,WSW,247,10.7,29.9,77,0.00,,,0.00,WUHU21636XXSP,2013-10-04 17:32:00,
2013-10-04 13:02:00,53.4,45.3,29.95,WNW,292,11.1,37.3,74,0.00,,,0.00,WUHU21636XXSP,2013-10-04 18:02:00,
2013-10-04 13:12:00,53.2,44.8,29.96,West,270,15.2,30.1,73,0.00,,,0.00,WUHU21636XXSP,2013-10-04 18:12:00,
2013-10-04 13:22:00,54.1,44.8,29.96,WNW,292,12.3,32.6,71,0.00,,,0.00,WUHU21636XXSP,2013-10-04 18:22:00,
2013-10-04 13:32:00,54.5,44.4,29.97,WNW,292,16.5,30.8,69,0.00,,,0.00,WUHU21636XXSP,2013-10-04 18:32:00,
2013-10-04 13:42:00,54.0,43.5,29.98,NW,315,8.9,31.7,68,0.00,,,0.00,WUHU21636XXSP,2013-10-04 18:42:00,
2013-10-04 13:52:00,54.3,43.2,29.98,NNW,337,11.4,30.1,66,0.00,,,0.00,WUHU21636XXSP,2013-10-04 18:52:00,
2013-10-04 14:02:00,54.5,42.1,29.98,West,270,12.0,28.6,63,0.00,,,0.00,WUHU21636XXSP,2013-10-04 19:02:00,
2013-10-04 14:12:00,55.0,42.1,29.98,WNW,292,10.0,30.1,62,0.00,,,0.00,WUHU21636XXSP,2013-10-04 19:12:00,
2013-10-04 14:22:00,55.2,41.5,29.99,West,270,13.6,28.6,60,0.00,,,0.00,WUHU21636XXSP,2013-10-04 19:22:00,
2013-10-04 14:32:00,55.6,40.8,29.99,WNW,292,12.7,29.0,58,0.00,,,0.00,WUHU21636XXSP,2013-10-04 19:32:00,
2013-10-04 14:42:00,55.2,40.5,29.99,NW,315,11.6,34.2,58,0.00,,,0.00,WUHU21636XXSP,2013-10-04 19:42:00,
2013-10-04 14:52:00,55.0,39.4,29.99,NW,315,17.6,31.7,56,0.00,,,0.00,WUHU21636XXSP,2013-10-04 19:52:00,
2013-10-04 15:02:00,55.9,40.8,30.00,WNW,292,12.3,29.3,57,0.00,,,0.00,WUHU21636XXSP,2013-10-04 20:02:00,
2013-10-04 15:12:00,55.4,38.3,30.00,NW,315,15.2,37.5,53,0.00,,,0.00,WUHU21636XXSP,2013-10-04 20:12:00,
2013-10-04 15:22:00,54.1,38.1,30.01,WNW,292,17.8,33.5,55,0.00,,,0.00,WUHU21636XXSP,2013-10-04 20:22:00,
2013-10-04 15:32:00,54.9,38.8,30.02,NW,315,16.7,33.1,55,0.00,,,0.00,WUHU21636XXSP,2013-10-04 20:32:00,
2013-10-04 15:42:00,55.0,38.1,30.02,WNW,292,12.3,43.3,54,0.00,,,0.00,WUHU21636XXSP,2013-10-04 20:42:00,
2013-10-04 15:52:00,54.7,37.8,30.03,West,270,21.0,38.9,53,0.00,,,0.00,WUHU21636XXSP,2013-10-04 20:52:00,
2013-10-04 16:02:00,54.3,36.9,30.03,WNW,292,17.0,37.5,52,0.00,,,0.00,WUHU21636XXSP,2013-10-04 21:02:00,
2013-10-04 16:12:00,53.8,35.4,30.04,West,270,19.0,33.7,50,0.00,,,0.00,WUHU21636XXSP,2013-10-04 21:12:00,
2013-10-04 16:22:00,53.2,36.0,30.04,NW,315,19.6,37.8,52,0.00,,,0.00,WUHU21636XXSP,2013-10-04 21:22:00,
2013-10-04 16:32:00,53.4,35.6,30.05,WNW,292,14.5,43.3,51,0.00,,,0.00,WUHU21636XXSP,2013-10-04 21:32:00,
2013-10-04 16:42:00,53.1,34.3,30.06,NW,315,20.3,40.7,49,0.00,,,0.00,WUHU21636XXSP,2013-10-04 21:42:00,
2013-10-04 16:52:00,52.5,34.3,30.06,WNW,292,22.1,38.9,50,0.00,,,0.00,WUHU21636XXSP,2013-10-04 21:52:00,
2013-10-04 17:02:00,52.2,34.5,30.08,WNW,292,17.8,40.4,51,0.00,,,0.00,WUHU21636XXSP,2013-10-04 22:02:00,
2013-10-04 17:12:00,52.0,34.7,30.08,NW,315,17.4,36.6,52,0.00,,,0.00,WUHU21636XXSP,2013-10-04 22:12:00,
2013-10-04 17:22:00,51.4,33.8,30.09,NW,315,15.4,34.8,51,0.00,,,0.00,WUHU21636XXSP,2013-10-04 22:22:00,
2013-10-04 17:32:00,51.1,33.4,30.10,WNW,292,19.2,35.1,51,0.00,,,0.00,WUHU21636XXSP,2013-10-04 22:32:00,
2013-10-04 17:42:00,50.5,33.1,30.11,NW,315,19.4,37.8,51,0.00,,,0.00,WUHU21636XXSP,2013-10-04 22:42:00,
2013-10-04 17:52:00,50.2,32.7,30.11,NNW,337,16.5,45.6,51,0.00,,,0.00,WUHU21636XXSP,2013-10-04 22:52:00,
2013-10-04 18:02:00,49.8,32.9,30.11,WNW,292,14.9,37.8,52,0.00,,,0.00,WUHU21636XXSP,2013-10-04 23:02:00,
2013-10-04 18:12:00,49.3,31.8,30.11,NNW,337,17.2,40.9,51,0.00,,,0.00,WUHU21636XXSP,2013-10-04 23:12:00,
2013-10-04 18:22:00,48.6,32.0,30.12,NW,315,19.2,43.6,53,0.00,,,0.00,WUHU21636XXSP,2013-10-04 23:22:00,
2013-10-04 18:32:00,47.7,32.2,30.11,NNW,337,13.1,41.1,55,0.00,,,0.00,WUHU21636XXSP,2013-10-04 23:32:00,
2013-10-04 18:42:00,46.9,31.8,30.11,WNW,292,13.4,37.1,56,0.00,,,0.00,WUHU21636XXSP,2013-10-04 23:42:00,
2013-10-04 18:52:00,46.2,31.6,30.11,NNW,337,17.2,39.3,57,0.00,,,0.00,WUHU21636XXSP,2013-10-04 23:52:00,
2013-10-04 19:02:00,45.7,31.1,30.11,WNW,292,10.5,40.7,57,0.00,,,0.00,WUHU21636XXSP,2013-10-05 00:02:00,
2013-10-04 19:12:00,45.0,31.5,30.11,NNW,337,20.3,36.9,59,0.00,,,0.00,WUHU21636XXSP,2013-10-05 00:12:00,
2013-10-04 19:22:00,44.2,31.6,30.12,NNW,337,17.6,36.0,61,0.00,,,0.00,WUHU21636XXSP,2013-10-05 00:22:00,
2013-10-04 19:32:00,43.5,30.6,30.12,NW,315,13.6,41.6,60,0.00,,,0.00,WUHU21636XXSP,2013-10-05 00:32:00,
2013-10-04 19:42:00,43.0,29.5,30.12,NNW,337,15.4,39.5,59,0.00,,,0.00,WUHU21636XXSP,2013-10-05 00:42:00,
2013-10-04 19:52:00,42.6,29.7,30.12,NW,315,11.4,36.4,60,0.00,,,0.00,WUHU21636XXSP,2013-10-05 00:52:00,
2013-10-04 20:02:00,42.3,29.3,30.13,NNW,337,10.9,35.7,60,0.00,,,0.00,WUHU21636XXSP,2013-10-05 01:02:00,
2013-10-04 20:12:00,42.1,29.5,30.14,North,0,7.3,31.0,61,0.00,,,0.00,WUHU21636XXSP,2013-10-05 01:12:00,
2013-10-04 20:22:00,41.7,29.5,30.13,NW,315,12.5,29.9,62,0.00,,,0.00,WUHU21636XXSP,2013-10-05 01:22:00,
2013-10-04 20:32:00,41.5,30.2,30.14,NW,315,13.6,33.1,64,0.00,,,0.00,WUHU21636XXSP,2013-10-05 01:32:00,
2013-10-04 20:42:00,41.4,31.1,30.14,NNW,337,12.5,30.4,67,0.00,,,0.00,WUHU21636XXSP,2013-10-05 01:42:00,
2013-10-04 20:52:00,41.4,31.5,30.14,NW,315,7.3,28.8,68,0.00,,,0.00,WUHU21636XXSP,2013-10-05 01:52:00,
2013-10-04 21:02:00,41.2,31.3,30.15,NNW,337,11.6,29.0,68,0.00,,,0.00,WUHU21636XXSP,2013-10-05 02:02:00,
2013-10-04 21:12:00,41.2,30.9,30.16,North,0,13.1,25.7,67,0.00,,,0.00,WUHU21636XXSP,2013-10-05 02:12:00,
2013-10-04 21:22:00,41.2,30.9,30.16,WNW,292,13.4,28.4,67,0.00,,,0.00,WUHU21636XXSP,2013-10-05 02:22:00,
2013-10-04 21:32:00,40.8,30.9,30.16,NW,315,17.0,29.3,68,0.00,,,0.00,WUHU21636XXSP,2013-10-05 02:32:00,
2013-10-04 21:42:00,40.6,30.7,30.17,NNW,337,10.2,24.6,68,0.00,,,0.00,WUHU21636XXSP,2013-10-05 02:42:00,
2013-10-04 21:52:00,40.6,30.7,30.17,North,0,11.6,23.9,68,0.00,,,0.00,WUHU21636XXSP,2013-10-05 02:52:00,
2013-10-04 22:02:00,40.3,30.4,30.17,WNW,292,13.8,27.0,68,0.00,,,0.00,WUHU21636XXSP,2013-10-05 03:02:00,
2013-10-04 22:12:00,40.1,30.6,30.18,WNW,292,11.8,28.6,69,0.00,,,0.00,WUHU21636XXSP,2013-10-05 03:12:00,
2013-10-04 22:23:00,39.9,30.9,30.19,NNW,337,9.8,26.1,70,0.00,,,0.00,WUHU21636XXSP,2013-10-05 03:23:00,
2013-10-04 22:33:00,39.7,30.7,30.19,NW,315,9.8,23.0,70,0.00,,,0.00,WUHU21636XXSP,2013-10-05 03:33:00,
2013-10-04 22:43:00,39.7,30.9,30.19,NNW,337,9.1,23.0,71,0.00,,,0.00,WUHU21636XXSP,2013-10-05 03:43:00,
2013-10-04 22:53:00,39.7,30.9,30.19,NW,315,8.9,19.9,71,0.00,,,0.00,WUHU21636XXSP,2013-10-05 03:53:00,
2013-10-04 23:03:00,39.7,30.9,30.19,NW,315,8.7,21.4,71,0.00,,,0.00,WUHU21636XXSP,2013-10-05 04:03:00,
2013-10-04 23:13:00,39.6,30.7,30.19,NNW,337,7.3,19.4,71,0.00,,,0.00,WUHU21636XXSP,2013-10-05 04:13:00,
2013-10-04 23:23:00,39.6,30.7,30.20,NNW,337,5.5,23.4,71,0.00,,,0.00,WUHU21636XXSP,2013-10-05 04:23:00,
2013-10-04 23:33:00,39.4,30.6,30.20,WNW,292,8.2,22.5,71,0.00,,,0.00,WUHU21636XXSP,2013-10-05 04:33:00,
2013-10-04 23:43:00,39.4,30.6,30.20,NNW,337,6.2,20.8,71,0.00,,,0.00,WUHU21636XXSP,2013-10-05 04:43:00,
2013-10-04 23:53:00,39.2,30.4,30.21,NNW,337,7.1,25.7,71,0.00,,,0.00,WUHU21636XXSP,2013-10-05 04:53:00,